Time;durP1;ratioP1;P1;durP2;ratioP2;P2;SDS_P1;SDS_P2;PMS_P1;PMS_P2;Temp;Humidity;BMP_temperature;BMP_pressure;BME280_temperature;BME280_humidity;BME280_pressure;Samples;Min_cycle;Max_cycle;Signal;HPM_P1;HPM_P2
2022/10/30 00:02:16;;;;;;;22.10;11.48;;;13.30;99.90;;;;;;4330923;28;10000453;-76
2022/10/30 00:04:41;;;;;;;21.90;11.90;;;13.30;99.90;;;;;;5029903;28;20039;-76
2022/10/30 00:07:07;;;;;;;28.00;10.68;;;13.30;99.90;;;;;;5025558;28;20033;-76
2022/10/30 00:09:33;;;;;;;17.58;9.80;;;13.30;99.90;;;;;;5024706;28;20082;-76
2022/10/30 00:11:58;;;;;;;17.33;10.55;;;13.40;99.90;;;;;;5025835;28;20033;-76
2022/10/30 00:14:24;;;;;;;21.10;10.57;;;13.30;99.90;;;;;;5028507;28;20501;-76
2022/10/30 00:16:50;;;;;;;23.27;11.43;;;13.40;99.90;;;;;;5029308;28;20087;-76
2022/10/30 00:19:15;;;;;;;16.50;10.55;;;13.40;99.90;;;;;;5024215;28;20056;-75
2022/10/30 00:21:41;;;;;;;14.32;9.57;;;13.30;99.90;;;;;;5024558;28;20108;-76
2022/10/30 00:24:06;;;;;;;19.10;10.32;;;13.30;99.90;;;;;;5022350;28;20033;-76
2022/10/30 00:26:32;;;;;;;19.17;10.75;;;13.20;99.90;;;;;;5024697;28;20025;-76
2022/10/30 00:28:58;;;;;;;16.23;10.85;;;13.20;99.90;;;;;;5019977;28;20045;-75
2022/10/30 00:31:24;;;;;;;21.85;12.05;;;13.10;99.90;;;;;;5026145;28;20370;-76
2022/10/30 00:33:50;;;;;;;19.70;12.32;;;13.10;99.90;;;;;;5022688;28;20053;-76
2022/10/30 00:36:16;;;;;;;25.33;13.07;;;13.00;99.90;;;;;;5027601;28;20176;-75
2022/10/30 00:38:41;;;;;;;24.00;13.05;;;13.00;99.90;;;;;;5022665;28;20503;-76
2022/10/30 00:41:16;;;;;;;20.52;11.27;;;13.00;99.90;;;;;;5022518;28;20029;-75
2022/10/30 00:43:42;;;;;;;19.02;11.82;;;12.90;99.90;;;;;;5018651;28;20045;-75
2022/10/30 00:46:25;;;;;;;18.77;11.05;;;12.90;99.90;;;;;;5026105;28;20062;-76
2022/10/30 00:48:57;;;;;;;19.77;12.13;;;12.90;99.90;;;;;;5027174;28;20021;-75
2022/10/30 00:51:23;;;;;;;26.17;12.90;;;12.80;99.90;;;;;;5028021;28;20272;-75
2022/10/30 00:53:50;;;;;;;20.67;11.90;;;12.90;99.90;;;;;;5019926;28;20028;-75
2022/10/30 00:56:19;;;;;;;20.33;12.38;;;12.90;99.90;;;;;;5026546;28;20086;-75
2022/10/30 00:58:49;;;;;;;19.33;11.60;;;12.90;99.90;;;;;;5024518;28;20763;-76
2022/10/30 01:01:20;;;;;;;18.70;12.02;;;12.90;99.90;;;;;;5023706;28;20374;-75
2022/10/30 01:03:49;;;;;;;19.38;11.25;;;12.80;99.90;;;;;;5023652;28;20017;-75
2022/10/30 01:06:15;;;;;;;21.40;12.00;;;12.80;99.90;;;;;;5025301;28;20021;-75
2022/10/30 01:08:42;;;;;;;27.75;13.20;;;12.80;99.90;;;;;;5024811;28;20029;-75
2022/10/30 01:11:09;;;;;;;22.15;13.57;;;12.80;99.90;;;;;;5026487;28;20109;-75
2022/10/30 01:13:36;;;;;;;26.13;13.30;;;12.80;99.90;;;;;;5023613;28;20164;-75
2022/10/30 01:16:27;;;;;;;31.13;14.38;;;12.70;99.90;;;;;;5024662;28;20033;-75
2022/10/30 01:19:22;;;;;;;27.38;13.52;;;12.70;99.90;;;;;;5023628;28;20052;-75
2022/10/30 01:22:09;;;;;;;24.20;14.50;;;12.60;99.90;;;;;;5023094;28;20108;-76
2022/10/30 01:24:50;;;;;;;25.83;14.05;;;12.60;99.90;;;;;;5022527;28;20031;-75
2022/10/30 01:27:43;;;;;;;22.70;14.40;;;12.60;99.90;;;;;;5029439;28;20033;-75
2022/10/30 01:30:44;;;;;;;21.60;13.82;;;12.60;99.90;;;;;;5027654;28;20060;-75
2022/10/30 01:33:16;;;;;;;21.70;12.55;;;12.60;99.90;;;;;;5024491;28;20509;-76
2022/10/30 01:35:49;;;;;;;16.60;11.40;;;12.60;99.90;;;;;;5029956;28;21023;-76
2022/10/30 01:38:18;;;;;;;21.25;12.20;;;12.60;99.90;;;;;;5028292;28;20036;-75
2022/10/30 01:40:44;;;;;;;27.50;14.57;;;12.60;99.90;;;;;;5029606;28;20683;-75
2022/10/30 01:43:10;;;;;;;29.67;14.63;;;12.60;99.90;;;;;;5026561;28;20030;-76
2022/10/30 01:45:39;;;;;;;22.75;13.45;;;12.60;99.90;;;;;;5028953;28;20166;-75
2022/10/30 01:48:17;;;;;;;22.27;13.00;;;12.60;99.90;;;;;;5032632;28;20056;-75
2022/10/30 01:50:58;;;;;;;17.98;12.77;;;12.60;99.90;;;;;;5027426;28;20067;-75
2022/10/30 01:53:50;;;;;;;20.77;13.27;;;12.60;99.90;;;;;;5024224;28;20402;-75
2022/10/30 01:56:36;;;;;;;20.80;13.40;;;12.70;99.90;;;;;;5027894;28;20033;-75
2022/10/30 01:59:12;;;;;;;24.17;13.23;;;12.60;99.90;;;;;;5029106;28;20033;-75
2022/10/30 02:01:38;;;;;;;26.33;14.65;;;12.60;99.90;;;;;;5026637;28;20182;-75
2022/10/30 02:04:09;;;;;;;25.50;12.23;;;12.70;99.90;;;;;;5022180;28;20033;-75
2022/10/30 02:06:39;;;;;;;27.55;12.32;;;12.70;99.90;;;;;;5025778;28;20505;-75
2022/10/30 02:09:05;;;;;;;25.13;12.77;;;12.70;99.90;;;;;;5024740;28;20037;-75
2022/10/30 02:11:32;;;;;;;30.85;14.20;;;12.80;99.90;;;;;;5021751;28;20032;-75
2022/10/30 02:14:03;;;;;;;28.67;13.32;;;12.80;99.90;;;;;;5025896;28;20085;-75
2022/10/30 02:16:28;;;;;;;28.35;14.50;;;12.80;99.90;;;;;;5021872;28;20037;-75
2022/10/30 02:18:54;;;;;;;29.15;13.77;;;12.70;99.90;;;;;;5031565;28;20032;-75
2022/10/30 02:21:20;;;;;;;28.67;14.52;;;12.70;99.90;;;;;;5029479;28;20040;-75
2022/10/30 02:23:45;;;;;;;29.80;15.45;;;12.70;99.90;;;;;;5031204;28;20033;-75
2022/10/30 02:26:11;;;;;;;29.27;14.95;;;12.70;99.90;;;;;;5034357;28;20053;-75
2022/10/30 02:28:36;;;;;;;26.33;14.02;;;12.60;99.90;;;;;;5029654;28;20041;-75
2022/10/30 02:31:02;;;;;;;30.58;14.75;;;12.60;99.90;;;;;;5028007;28;20045;-75
2022/10/30 02:33:28;;;;;;;23.98;14.27;;;12.60;99.90;;;;;;5024045;28;20481;-76
2022/10/30 02:35:53;;;;;;;20.30;13.93;;;12.60;99.90;;;;;;5026128;28;20033;-75
2022/10/30 02:38:19;;;;;;;20.67;13.30;;;12.60;99.90;;;;;;5032166;28;20482;-75
2022/10/30 02:40:45;;;;;;;19.85;13.10;;;12.60;99.90;;;;;;5033189;28;20056;-76
2022/10/30 02:43:11;;;;;;;23.55;13.60;;;12.60;99.90;;;;;;5025156;28;20552;-76
2022/10/30 02:45:36;;;;;;;26.00;13.80;;;12.60;99.90;;;;;;5023900;28;20038;-76
2022/10/30 02:48:02;;;;;;;22.17;13.15;;;12.60;99.90;;;;;;5031837;28;20040;-76
2022/10/30 02:50:27;;;;;;;25.50;13.18;;;12.50;99.90;;;;;;5029625;28;20033;-76
2022/10/30 02:52:53;;;;;;;17.33;11.68;;;12.50;99.90;;;;;;5022628;28;20193;-76
2022/10/30 02:55:19;;;;;;;15.45;11.27;;;12.50;99.90;;;;;;5031741;28;20036;-75
2022/10/30 02:57:44;;;;;;;17.98;11.18;;;12.50;99.90;;;;;;5027527;28;20030;-75
2022/10/30 03:00:11;;;;;;;18.27;11.75;;;12.50;99.90;;;;;;5034392;28;20029;-76
2022/10/30 03:02:36;;;;;;;17.20;11.07;;;12.50;99.90;;;;;;5034696;28;20083;-75
2022/10/30 03:05:02;;;;;;;20.92;12.40;;;12.40;99.90;;;;;;5032211;28;20774;-75
2022/10/30 03:07:28;;;;;;;20.33;12.25;;;12.40;99.90;;;;;;5031315;28;20452;-75
2022/10/30 03:09:53;;;;;;;18.77;11.95;;;12.40;99.90;;;;;;5027303;28;20037;-75
2022/10/30 03:12:20;;;;;;;24.83;12.82;;;12.40;99.90;;;;;;5029540;28;20118;-75
2022/10/30 03:14:46;;;;;;;28.60;14.05;;;12.40;99.90;;;;;;5029335;28;20060;-75
2022/10/30 03:17:11;;;;;;;22.48;13.27;;;12.40;99.90;;;;;;5026224;28;20182;-75
2022/10/30 03:19:37;;;;;;;20.35;12.70;;;12.40;99.90;;;;;;5026693;28;20044;-75
2022/10/30 03:22:02;;;;;;;27.70;14.15;;;12.30;99.90;;;;;;5023556;28;20025;-75
2022/10/30 03:24:28;;;;;;;23.50;12.38;;;12.30;99.90;;;;;;5024189;28;20028;-75
2022/10/30 03:26:54;;;;;;;19.25;11.82;;;12.30;99.90;;;;;;5025899;28;20034;-75
2022/10/30 03:29:19;;;;;;;21.17;11.82;;;12.30;99.90;;;;;;5027440;28;20624;-75
2022/10/30 03:31:45;;;;;;;20.05;12.35;;;12.30;99.90;;;;;;5025942;28;20497;-75
2022/10/30 03:34:10;;;;;;;21.85;11.65;;;12.40;99.90;;;;;;5030814;28;20098;-75
2022/10/30 03:36:36;;;;;;;29.80;13.50;;;12.40;99.90;;;;;;5024640;28;20131;-75
2022/10/30 03:39:02;;;;;;;30.85;13.70;;;12.40;99.90;;;;;;5020038;28;20025;-75
2022/10/30 03:41:28;;;;;;;30.90;14.23;;;12.40;99.90;;;;;;5029444;28;20057;-75
2022/10/30 03:43:53;;;;;;;28.08;13.95;;;12.40;99.90;;;;;;5029975;28;20029;-75
2022/10/30 03:46:19;;;;;;;23.55;13.63;;;12.40;99.90;;;;;;5032008;28;20029;-75
2022/10/30 03:48:48;;;;;;;22.90;12.88;;;12.30;99.90;;;;;;5034757;28;20033;-76
2022/10/30 03:51:14;;;;;;;21.15;12.52;;;12.30;99.90;;;;;;5035212;28;20099;-75
2022/10/30 03:53:39;;;;;;;17.02;11.52;;;12.20;99.90;;;;;;5032229;28;20029;-76
2022/10/30 03:56:06;;;;;;;21.45;12.90;;;12.20;99.90;;;;;;5030353;28;20032;-75
2022/10/30 03:58:31;;;;;;;24.67;13.32;;;12.20;99.90;;;;;;5034334;28;20610;-75
2022/10/30 04:01:05;;;;;;;22.20;13.55;;;12.20;99.90;;;;;;5036258;28;20029;-75
2022/10/30 04:03:31;;;;;;;25.52;14.23;;;12.20;99.90;;;;;;5028455;28;20061;-76
2022/10/30 04:05:57;;;;;;;30.55;14.13;;;12.20;99.90;;;;;;5042462;28;20063;-75
2022/10/30 04:08:23;;;;;;;23.10;14.10;;;12.10;99.90;;;;;;5034193;28;20881;-75
2022/10/30 04:10:48;;;;;;;26.23;14.02;;;12.10;99.90;;;;;;5030113;28;20103;-75
2022/10/30 04:13:16;;;;;;;27.95;13.85;;;12.10;99.90;;;;;;5032050;28;20095;-75
2022/10/30 04:15:42;;;;;;;26.75;14.95;;;12.00;99.90;;;;;;5026245;28;20049;-75
2022/10/30 04:18:12;;;;;;;27.42;14.80;;;11.90;99.90;;;;;;5030745;28;20059;-75
2022/10/30 04:20:37;;;;;;;32.40;14.77;;;11.90;99.90;;;;;;5030738;28;20096;-75
2022/10/30 04:23:05;;;;;;;30.70;15.15;;;11.90;99.90;;;;;;5029273;28;20428;-75
2022/10/30 04:25:33;;;;;;;28.58;15.55;;;11.90;99.90;;;;;;5020715;28;20063;-75
2022/10/30 04:28:00;;;;;;;28.17;15.07;;;11.90;99.90;;;;;;5037042;28;20052;-75
2022/10/30 04:30:26;;;;;;;29.73;15.82;;;11.80;99.90;;;;;;5028103;28;20049;-75
2022/10/30 04:32:54;;;;;;;25.27;14.90;;;11.70;99.90;;;;;;5023975;28;20056;-75
2022/10/30 04:35:22;;;;;;;29.17;17.60;;;11.70;99.90;;;;;;5027713;28;20166;-75
2022/10/30 04:37:59;;;;;;;26.13;16.33;;;11.60;99.90;;;;;;5027806;28;20029;-75
2022/10/30 04:40:31;;;;;;;30.27;16.90;;;11.50;99.90;;;;;;5028936;28;20578;-75
2022/10/30 04:42:57;;;;;;;29.88;17.50;;;11.40;99.90;;;;;;5026032;28;20127;-76
2022/10/30 04:45:23;;;;;;;31.05;17.00;;;11.40;99.90;;;;;;5024238;28;20032;-75
2022/10/30 04:47:49;;;;;;;23.23;15.57;;;11.30;99.90;;;;;;5026579;28;20059;-75
2022/10/30 04:50:14;;;;;;;21.02;14.88;;;11.30;99.90;;;;;;5031950;28;20024;-75
2022/10/30 04:52:40;;;;;;;20.40;13.98;;;11.30;99.90;;;;;;5026282;28;20732;-75
2022/10/30 04:55:07;;;;;;;20.10;13.85;;;11.30;99.90;;;;;;5026112;28;20029;-75
2022/10/30 04:57:35;;;;;;;18.15;13.05;;;11.30;99.90;;;;;;5029927;28;20433;-75
2022/10/30 05:00:04;;;;;;;16.50;12.68;;;11.30;99.90;;;;;;5027400;28;20057;-75
2022/10/30 05:02:30;;;;;;;17.15;12.00;;;11.20;99.90;;;;;;5014402;28;20033;-75
2022/10/30 05:04:56;;;;;;;17.92;11.82;;;11.20;99.90;;;;;;5023515;28;20029;-75
2022/10/30 05:07:21;;;;;;;17.17;11.63;;;11.20;99.90;;;;;;5015486;28;20044;-75
2022/10/30 05:09:47;;;;;;;16.65;11.80;;;11.20;99.90;;;;;;5028518;28;20088;-75
2022/10/30 05:12:12;;;;;;;20.65;12.70;;;11.20;99.90;;;;;;5025210;28;20107;-75
2022/10/30 05:14:38;;;;;;;22.33;12.90;;;11.20;99.90;;;;;;5027120;28;20029;-75
2022/10/30 05:17:04;;;;;;;21.95;12.85;;;11.30;99.90;;;;;;5022387;28;20025;-76
2022/10/30 05:19:29;;;;;;;21.73;14.10;;;11.30;99.90;;;;;;5022747;28;20059;-75
2022/10/30 05:21:55;;;;;;;22.25;13.35;;;11.30;99.90;;;;;;5021355;28;20033;-75
2022/10/30 05:24:20;;;;;;;21.17;12.63;;;11.40;99.90;;;;;;5026438;28;20025;-75
2022/10/30 05:26:46;;;;;;;17.05;11.38;;;11.40;99.90;;;;;;5025761;28;20041;-75
2022/10/30 05:29:12;;;;;;;20.63;11.80;;;11.40;99.90;;;;;;5029354;28;20059;-75
2022/10/30 05:31:38;;;;;;;16.38;11.43;;;11.40;99.90;;;;;;5023914;28;20037;-75
2022/10/30 05:34:04;;;;;;;18.17;11.50;;;11.40;99.90;;;;;;5025922;28;20033;-75
2022/10/30 05:36:29;;;;;;;17.75;11.98;;;11.40;99.90;;;;;;5024304;28;20078;-75
2022/10/30 05:38:55;;;;;;;20.35;11.88;;;11.40;99.90;;;;;;5026527;28;20036;-75
2022/10/30 05:41:21;;;;;;;21.45;12.77;;;11.50;99.90;;;;;;5026175;28;20025;-75
2022/10/30 05:43:46;;;;;;;19.95;12.77;;;11.50;99.90;;;;;;5026440;28;20037;-75
2022/10/30 05:46:12;;;;;;;16.45;11.85;;;11.40;99.90;;;;;;5025537;28;20025;-75
2022/10/30 05:48:37;;;;;;;19.02;12.80;;;11.40;99.90;;;;;;5027378;28;20727;-75
2022/10/30 05:51:05;;;;;;;17.95;12.15;;;11.40;99.90;;;;;;5025015;28;20025;-75
2022/10/30 05:53:31;;;;;;;18.27;11.75;;;11.30;99.90;;;;;;4678056;28;9999703;-75
2022/10/30 05:55:58;;;;;;;18.92;11.95;;;11.30;99.90;;;;;;5021120;28;20120;-75
2022/10/30 05:58:24;;;;;;;18.92;11.73;;;11.30;99.90;;;;;;5022223;28;20442;-75
2022/10/30 06:00:50;;;;;;;16.95;11.57;;;11.20;99.90;;;;;;5024571;28;20120;-75
2022/10/30 06:03:16;;;;;;;19.38;11.52;;;11.20;99.90;;;;;;5025372;28;20028;-75
2022/10/30 06:05:44;;;;;;;15.40;10.90;;;11.20;99.90;;;;;;5027994;28;20508;-76
2022/10/30 06:08:10;;;;;;;14.73;10.70;;;11.20;99.90;;;;;;5025661;28;20448;-75
2022/10/30 06:10:36;;;;;;;14.80;10.10;;;11.10;99.90;;;;;;5023429;28;20037;-76
2022/10/30 06:13:05;;;;;;;17.00;10.90;;;11.10;99.90;;;;;;5021472;28;20040;-75
2022/10/30 06:15:31;;;;;;;18.88;11.18;;;11.20;99.90;;;;;;5026090;28;20125;-75
2022/10/30 06:17:58;;;;;;;17.30;11.65;;;11.20;99.90;;;;;;5027463;28;20025;-75
2022/10/30 06:20:26;;;;;;;23.02;13.20;;;11.10;99.90;;;;;;5029320;28;20017;-75
2022/10/30 06:22:59;;;;;;;23.45;14.10;;;11.10;99.90;;;;;;5018844;28;20029;-75
2022/10/30 06:25:26;;;;;;;26.05;17.80;;;11.20;99.90;;;;;;5014995;28;20070;-75
2022/10/30 06:27:52;;;;;;;28.95;18.45;;;11.20;99.90;;;;;;5022072;28;20088;-75
2022/10/30 06:30:18;;;;;;;34.05;18.73;;;11.20;99.90;;;;;;5026195;28;20505;-75
2022/10/30 06:32:44;;;;;;;23.02;16.13;;;11.20;99.90;;;;;;5022060;28;20059;-75
2022/10/30 06:35:09;;;;;;;20.33;14.98;;;11.20;99.90;;;;;;5023521;28;20041;-76
2022/10/30 06:37:38;;;;;;;20.67;14.57;;;11.20;99.90;;;;;;5027116;28;21016;-75
2022/10/30 06:40:05;;;;;;;17.90;12.60;;;11.10;99.90;;;;;;5025528;28;20033;-75
2022/10/30 06:42:31;;;;;;;22.95;13.90;;;11.10;99.90;;;;;;5021435;28;20098;-75
2022/10/30 06:44:57;;;;;;;21.63;14.32;;;11.10;99.90;;;;;;5025863;28;20041;-75
2022/10/30 06:47:22;;;;;;;19.38;13.50;;;11.10;99.90;;;;;;5020627;28;20616;-75
2022/10/30 06:49:48;;;;;;;21.77;13.30;;;11.10;99.90;;;;;;5025831;28;20103;-75
2022/10/30 06:52:13;;;;;;;19.98;12.57;;;11.20;99.90;;;;;;5026442;28;20025;-75
2022/10/30 06:54:39;;;;;;;21.00;12.93;;;11.10;99.90;;;;;;5027251;28;20025;-75
2022/10/30 06:57:05;;;;;;;26.88;14.93;;;11.20;99.90;;;;;;5025503;28;20033;-75
2022/10/30 06:59:30;;;;;;;21.20;14.45;;;11.20;99.90;;;;;;5017425;28;20104;-75
2022/10/30 07:01:56;;;;;;;20.42;14.98;;;11.30;99.90;;;;;;5022236;28;20386;-75
2022/10/30 07:04:22;;;;;;;27.02;18.67;;;11.30;99.90;;;;;;5025369;28;20033;-75
2022/10/30 07:06:47;;;;;;;26.13;17.17;;;11.30;99.90;;;;;;5028208;28;20021;-75
2022/10/30 07:09:13;;;;;;;33.90;17.60;;;11.30;99.90;;;;;;5027680;28;20087;-75
2022/10/30 07:11:44;;;;;;;28.08;15.95;;;11.30;99.90;;;;;;5030636;28;20025;-75
2022/10/30 07:14:10;;;;;;;25.27;15.13;;;11.30;99.90;;;;;;5023163;28;20583;-75
2022/10/30 07:16:36;;;;;;;19.27;13.45;;;11.30;99.90;;;;;;5022437;28;20346;-75
2022/10/30 07:19:02;;;;;;;23.50;15.70;;;11.30;99.90;;;;;;5033390;28;20489;-75
2022/10/30 07:21:39;;;;;;;30.20;17.17;;;11.20;99.90;;;;;;4703330;28;10001836;-76
2022/10/30 07:24:05;;;;;;;29.35;16.13;;;11.30;99.90;;;;;;5041436;28;20254;-75
2022/10/30 07:26:32;;;;;;;34.45;17.73;;;11.30;99.90;;;;;;5040690;28;20440;-75
2022/10/30 07:28:58;;;;;;;30.90;19.70;;;11.40;99.90;;;;;;5044000;28;20044;-75
2022/10/30 07:31:23;;;;;;;30.90;18.63;;;11.40;99.90;;;;;;5045618;28;20095;-75
2022/10/30 07:33:49;;;;;;;27.33;16.90;;;11.50;99.90;;;;;;5036278;28;20547;-75
2022/10/30 07:36:14;;;;;;;22.90;16.42;;;11.50;99.90;;;;;;5045577;28;20115;-75
2022/10/30 07:38:40;;;;;;;31.05;16.73;;;11.50;99.90;;;;;;5041673;28;20029;-75
2022/10/30 07:41:06;;;;;;;26.05;16.70;;;11.60;99.90;;;;;;5049024;28;20028;-75
2022/10/30 07:43:31;;;;;;;30.20;17.38;;;11.60;99.90;;;;;;5041882;28;20048;-75
2022/10/30 07:45:57;;;;;;;29.13;17.75;;;11.70;99.90;;;;;;5044294;28;20025;-75
2022/10/30 07:48:22;;;;;;;29.10;19.10;;;11.70;99.90;;;;;;5049021;28;20109;-75
2022/10/30 07:50:48;;;;;;;33.40;19.40;;;11.70;99.90;;;;;;5050198;28;20082;-75
2022/10/30 07:53:14;;;;;;;31.63;18.85;;;11.70;99.90;;;;;;5040328;28;20035;-75
2022/10/30 07:55:41;;;;;;;29.25;16.80;;;11.70;99.90;;;;;;5033274;28;20733;-75
2022/10/30 07:58:07;;;;;;;27.90;19.35;;;11.70;99.90;;;;;;5028781;28;20393;-75
2022/10/30 08:00:33;;;;;;;27.02;17.38;;;11.70;99.90;;;;;;5023994;28;20048;-75
2022/10/30 08:02:58;;;;;;;26.70;16.05;;;11.80;99.90;;;;;;5029109;28;20029;-75
2022/10/30 08:05:24;;;;;;;33.05;16.05;;;11.80;99.90;;;;;;5020858;28;20026;-75
2022/10/30 08:07:49;;;;;;;28.50;15.30;;;11.80;99.90;;;;;;5031578;28;20040;-75
2022/10/30 08:10:15;;;;;;;23.23;15.30;;;11.90;99.90;;;;;;5031836;28;20071;-75
2022/10/30 08:12:43;;;;;;;24.35;15.77;;;12.00;99.90;;;;;;5021395;28;20094;-75
2022/10/30 08:15:10;;;;;;;30.45;15.27;;;12.10;99.90;;;;;;5023771;28;20033;-75
2022/10/30 08:17:47;;;;;;;30.65;16.67;;;12.30;99.90;;;;;;5032192;28;20029;-75
2022/10/30 08:20:15;;;;;;;29.85;14.77;;;12.50;99.90;;;;;;5026378;28;20040;-75
2022/10/30 08:22:54;;;;;;;27.75;14.52;;;12.60;99.90;;;;;;5032086;28;20033;-75
2022/10/30 08:25:24;;;;;;;27.30;14.45;;;12.70;99.90;;;;;;5032080;28;20036;-75
2022/10/30 08:28:04;;;;;;;23.30;14.02;;;12.90;99.90;;;;;;5038180;28;20030;-75
2022/10/30 08:30:36;;;;;;;30.33;16.30;;;13.00;99.90;;;;;;5031607;28;20045;-75
2022/10/30 08:33:04;;;;;;;24.35;14.77;;;13.10;99.90;;;;;;5023321;28;20065;-75
2022/10/30 08:35:30;;;;;;;21.45;13.68;;;13.20;99.90;;;;;;5027981;28;20032;-76
2022/10/30 08:37:56;;;;;;;27.15;13.05;;;13.30;99.90;;;;;;5039622;28;20029;-76
2022/10/30 08:40:22;;;;;;;26.85;13.18;;;13.30;99.90;;;;;;5044083;28;20029;-75
2022/10/30 08:42:56;;;;;;;23.45;13.25;;;13.40;99.90;;;;;;5041363;28;20032;-75
2022/10/30 08:45:23;;;;;;;23.88;13.35;;;13.40;99.90;;;;;;5047807;28;20068;-76
2022/10/30 08:47:57;;;;;;;27.88;12.80;;;13.50;99.90;;;;;;5034976;28;20033;-75
2022/10/30 08:50:22;;;;;;;24.83;13.10;;;13.50;99.90;;;;;;5027858;28;20064;-75
2022/10/30 08:52:48;;;;;;;28.92;12.75;;;13.60;99.90;;;;;;5029688;28;20434;-75
2022/10/30 08:55:14;;;;;;;31.85;13.38;;;13.70;99.90;;;;;;5029971;28;20021;-76
2022/10/30 08:57:39;;;;;;;23.38;12.57;;;13.80;99.90;;;;;;5032471;28;20613;-75
2022/10/30 09:00:06;;;;;;;22.33;13.23;;;14.00;99.90;;;;;;5032639;28;20407;-76
2022/10/30 09:02:33;;;;;;;23.17;12.20;;;14.10;99.90;;;;;;5035854;28;20481;-76
2022/10/30 09:04:58;;;;;;;23.58;12.80;;;14.20;99.90;;;;;;5044525;28;20051;-76
2022/10/30 09:07:24;;;;;;;28.48;14.52;;;14.40;99.90;;;;;;5027924;28;20474;-75
2022/10/30 09:09:49;;;;;;;27.65;13.10;;;14.50;99.90;;;;;;5032318;28;20037;-75
2022/10/30 09:12:15;;;;;;;27.85;13.25;;;14.60;99.90;;;;;;5038742;28;20021;-75
2022/10/30 09:14:41;;;;;;;25.42;13.70;;;14.80;99.90;;;;;;5046257;28;20104;-75
2022/10/30 09:17:07;;;;;;;28.50;14.30;;;14.90;99.90;;;;;;5031926;28;20329;-75
2022/10/30 09:19:32;;;;;;;23.88;14.43;;;15.00;99.90;;;;;;5029889;28;20020;-76
2022/10/30 09:21:58;;;;;;;28.73;14.77;;;15.10;99.90;;;;;;5031218;28;20032;-75
2022/10/30 09:24:24;;;;;;;30.90;14.23;;;15.20;99.90;;;;;;5026751;28;20082;-75
2022/10/30 09:26:49;;;;;;;24.85;14.32;;;15.40;99.90;;;;;;5043010;28;20520;-75
2022/10/30 09:29:15;;;;;;;30.67;13.90;;;15.40;99.90;;;;;;5034315;28;20064;-75
2022/10/30 09:31:40;;;;;;;26.65;13.98;;;15.60;99.90;;;;;;5043594;28;20111;-76
2022/10/30 09:34:06;;;;;;;23.48;13.75;;;15.60;99.90;;;;;;5034428;28;20037;-76
2022/10/30 09:36:31;;;;;;;23.67;13.32;;;15.70;99.90;;;;;;5023086;28;20025;-75
2022/10/30 09:38:58;;;;;;;25.63;13.88;;;15.80;99.90;;;;;;5031439;28;20021;-75
2022/10/30 09:42:05;;;;;;;27.92;13.98;;;15.80;99.90;;;;;;5027292;28;20022;-76
2022/10/30 09:45:05;;;;;;;22.73;13.95;;;15.90;99.90;;;;;;5024274;28;20044;-76
2022/10/30 09:48:18;;;;;;;23.00;13.50;;;16.00;99.90;;;;;;5036590;28;20043;-75
2022/10/30 09:51:08;;;;;;;31.23;13.77;;;16.00;99.90;;;;;;5031531;28;20037;-76
2022/10/30 09:54:01;;;;;;;26.58;13.95;;;16.10;99.90;;;;;;5024678;28;20040;-76
2022/10/30 09:56:35;;;;;;;23.80;13.45;;;16.10;99.90;;;;;;5035632;28;20112;-76
2022/10/30 09:59:23;;;;;;;33.50;14.25;;;16.20;99.90;;;;;;5030741;28;20032;-76
2022/10/30 10:01:59;;;;;;;30.75;14.80;;;16.20;99.90;;;;;;5026513;28;20033;-76
2022/10/30 10:04:41;;;;;;;25.48;14.25;;;16.30;99.90;;;;;;5027086;28;20037;-76
2022/10/30 10:07:19;;;;;;;23.90;13.05;;;16.30;99.90;;;;;;5027062;28;20033;-76
2022/10/30 10:09:48;;;;;;;26.08;14.75;;;16.40;99.90;;;;;;5028654;28;20089;-76
2022/10/30 10:12:27;;;;;;;23.73;12.52;;;16.40;99.90;;;;;;5024657;28;20239;-76
2022/10/30 10:14:54;;;;;;;24.08;12.85;;;16.60;99.90;;;;;;5028920;28;20099;-76
2022/10/30 10:17:46;;;;;;;22.67;12.93;;;16.60;99.90;;;;;;5034187;28;20025;-76
2022/10/30 10:20:40;;;;;;;26.95;12.35;;;16.70;99.90;;;;;;5026068;28;20049;-76
2022/10/30 10:23:32;;;;;;;21.85;11.95;;;16.80;99.90;;;;;;5031238;28;20485;-75
2022/10/30 10:26:07;;;;;;;24.58;12.40;;;16.90;99.90;;;;;;5024593;28;21294;-75
2022/10/30 10:28:54;;;;;;;19.48;11.13;;;16.90;99.90;;;;;;5035410;28;20029;-75
2022/10/30 10:31:45;;;;;;;29.42;12.13;;;17.00;99.90;;;;;;5036203;28;20045;-75
2022/10/30 10:34:37;;;;;;;23.73;11.80;;;17.10;99.90;;;;;;5031797;28;20420;-75
2022/10/30 10:37:22;;;;;;;26.08;12.05;;;17.10;99.90;;;;;;5030253;28;20351;-75
2022/10/30 10:40:12;;;;;;;20.40;11.43;;;17.20;99.90;;;;;;5037989;28;20033;-76
2022/10/30 10:43:08;;;;;;;19.83;11.02;;;17.30;99.90;;;;;;5034123;28;20068;-76
2022/10/30 10:45:43;;;;;;;20.42;10.85;;;17.40;99.90;;;;;;5040112;28;20440;-76
2022/10/30 10:48:23;;;;;;;24.35;10.73;;;17.50;99.90;;;;;;5041519;28;20573;-76
2022/10/30 10:51:07;;;;;;;20.77;11.45;;;17.60;99.90;;;;;;5029599;28;20265;-76
2022/10/30 10:53:47;;;;;;;19.67;11.07;;;17.70;99.90;;;;;;5025924;28;20057;-76
2022/10/30 10:56:13;;;;;;;19.48;10.73;;;17.80;99.90;;;;;;5031738;28;20033;-76
2022/10/30 10:58:48;;;;;;;20.90;10.20;;;17.90;99.90;;;;;;5031947;28;20028;-76
2022/10/30 11:01:20;;;;;;;19.77;9.27;;;18.00;99.90;;;;;;5030180;28;20028;-76
2022/10/30 11:04:03;;;;;;;24.10;9.45;;;18.20;99.90;;;;;;5026549;28;20061;-76
2022/10/30 11:06:33;;;;;;;25.48;9.85;;;;;;;;;;5029810;28;20041;-74
2022/10/30 11:09:12;;;;;;;22.08;9.15;;;18.40;99.90;;;;;;5032067;28;20114;-73
2022/10/30 11:11:38;;;;;;;17.85;9.13;;;18.50;99.90;;;;;;5038406;28;20405;-74
2022/10/30 11:14:16;;;;;;;18.88;8.98;;;18.60;99.90;;;;;;5031973;28;20020;-74
2022/10/30 11:17:11;;;;;;;21.70;8.68;;;18.60;99.90;;;;;;5040851;28;20083;-74
2022/10/30 11:19:37;;;;;;;19.98;8.07;;;18.70;99.90;;;;;;5036813;28;20527;-73
2022/10/30 11:22:22;;;;;;;25.55;7.45;;;18.80;99.90;;;;;;5034558;28;20018;-74
2022/10/30 11:24:48;;;;;;;18.70;7.18;;;18.90;99.90;;;;;;5024633;28;20099;-73
2022/10/30 11:27:22;;;;;;;21.15;8.13;;;19.00;99.90;;;;;;5038562;28;20560;-75
2022/10/30 11:29:52;;;;;;;20.42;7.32;;;19.10;99.90;;;;;;5035920;28;20127;-74
2022/10/30 11:32:21;;;;;;;20.10;7.68;;;19.30;99.90;;;;;;5031078;28;20021;-74
2022/10/30 11:35:07;;;;;;;14.50;6.30;;;19.30;99.90;;;;;;5024380;28;20576;-73
2022/10/30 11:37:35;;;;;;;23.75;7.80;;;19.40;99.90;;;;;;5028820;28;20064;-74
2022/10/30 11:40:12;;;;;;;19.25;6.90;;;19.50;99.90;;;;;;5033738;28;20477;-73
2022/10/30 11:42:55;;;;;;;16.02;6.35;;;19.50;99.90;;;;;;5028662;28;20064;-73
2022/10/30 11:45:35;;;;;;;16.25;5.88;;;19.60;99.90;;;;;;5031366;28;20033;-73
2022/10/30 11:48:01;;;;;;;14.80;6.10;;;19.70;99.90;;;;;;5031246;28;20563;-73
2022/10/30 11:50:29;;;;;;;23.58;7.18;;;19.80;99.90;;;;;;5035120;28;20025;-73
2022/10/30 11:53:01;;;;;;;14.20;6.38;;;20.00;99.90;;;;;;5033861;28;20284;-73
2022/10/30 11:55:34;;;;;;;20.47;7.53;;;20.00;99.90;;;;;;5030284;28;20036;-73
2022/10/30 11:58:00;;;;;;;17.58;5.90;;;20.10;99.90;;;;;;5033626;28;20409;-74
2022/10/30 12:00:33;;;;;;;14.30;6.15;;;20.10;99.90;;;;;;5039399;28;20881;-74
2022/10/30 12:02:59;;;;;;;17.38;6.03;;;20.20;99.90;;;;;;5034944;28;20064;-74
2022/10/30 12:05:28;;;;;;;16.58;6.32;;;20.30;99.90;;;;;;5024362;28;20449;-74
2022/10/30 12:08:07;;;;;;;18.38;5.55;;;20.30;99.90;;;;;;5030541;28;20056;-74
2022/10/30 12:10:46;;;;;;;17.05;5.60;;;20.30;99.90;;;;;;5031111;28;20027;-75
2022/10/30 12:13:14;;;;;;;11.93;5.22;;;20.40;99.90;;;;;;5036584;28;20036;-74
2022/10/30 12:15:40;;;;;;;20.23;5.10;;;20.40;99.90;;;;;;5028314;28;20057;-74
2022/10/30 12:18:15;;;;;;;23.42;5.78;;;20.50;99.90;;;;;;5030064;28;20413;-74
2022/10/30 12:20:46;;;;;;;15.95;5.78;;;20.50;99.90;;;;;;5028212;28;20064;-74
2022/10/30 12:23:19;;;;;;;14.80;5.60;;;20.60;99.90;;;;;;5039294;28;20035;-74
2022/10/30 12:25:50;;;;;;;18.00;5.72;;;20.70;99.90;;;;;;5031877;28;20116;-74
2022/10/30 12:28:20;;;;;;;14.15;5.43;;;20.70;99.90;;;;;;5032221;28;20052;-75
2022/10/30 12:31:05;;;;;;;21.88;5.43;;;20.80;99.90;;;;;;5032701;28;20052;-75
2022/10/30 12:33:49;;;;;;;14.10;5.57;;;20.80;99.90;;;;;;5033512;28;20035;-74
2022/10/30 12:36:32;;;;;;;18.98;5.95;;;20.80;99.90;;;;;;5034534;28;20029;-74
2022/10/30 12:39:13;;;;;;;19.45;5.80;;;20.90;99.90;;;;;;5028878;28;20498;-74
2022/10/30 12:41:48;;;;;;;12.93;5.18;;;21.00;99.90;;;;;;5031486;28;20083;-74
2022/10/30 12:44:28;;;;;;;19.52;5.95;;;21.00;99.90;;;;;;5032226;28;20030;-75